Main page
METAR-TAF:

METAR-TAF

Airports :

N'Djamena International Airport

N'Djamena, Chad

latitude: 12-08N, longitude: 015-02E, elevation: 295 m

Current weather observation

The report was made 53 minutes ago, at 05:00 UTC
Wind 3 kt from variable directions
Temperature 23°C
Humidity 94%
Pressure 1014 hPa
Visibility 10 km or more
Few clouds at a height of 2600 ft

METAR: FTTJ 250500Z VRB03KT 9999 FEW026 23/22 Q1014 NOSIG

Time: 06:53 (05:53 UTC)

Forecast

The report was made 53 minutes ago, at 05:00 UTC
Forecast valid from 25 at 06 UTC to 26 at 12 UTC
Wind 8 kt from the Southwest
Visibility 10 km or more
no clouds below 1500 m and no cumulonimbus
Temporary
from 25 at 10 UTC to 25 at 16 UTC
Visibility: 4000 m
thunderstorm, rain
Probability 30% :
Temporary
from 26 at 02 UTC to 26 at 07 UTC
Visibility: 4000 m
thunderstorm, rain

TAF: FTTJ 250500Z 2506/2612 22008KT CAVOK TEMPO 2510/2516 4000 TSRA PROB30 TEMPO 2602/2607 4000 TSRA

Weather observations and forecasts of more than 4000 airports (METAR and TAF reports).

The available stations are represented by yellow and red dots on the map.

Hover mouse over dot to see the name of the station.

Then click to see weather observations and forecasts.

To change the map : click on the green buttons with a black cross to zoom in, on the green button with a dash to zoom out, or on the green arrows for adjacent maps.


METAR-TAF: